Flugplatz Bopfingen (EDNQ)

Hier findest Du alle Informationen zum Flugplatz Bopfingen (EDNQ).

Informationen für Piloten zum Flugplatz Bopfingen

Hier findest Du alle relevanten Informationen, die Du als Pilot benötigst, um Bopfingen anzufliegen.

Flugplatz: Bopfingen ICAO-Code: EDNQ
Frequenz Turm: 122,850 Mhz GAFOR Gebiet: 62
Frequenz Ground: 122,850 Mhz Mogas: nein
Platzrunde: S 2700 ft Landegebühr: -
Platzhöhe: - Sunrise: 05:18 Uhr UTC
Pisten: 07/25 - 620 m x 30 m, Sunset: 16:56 Uhr UTC

Mitglieder, die in Bopfingen fliegen

Flugwetter am Flugplatz Bopfingen

Die METAR Information stammen aus EDMA (64.37 km entfernt).

METAR Code:
2020/10/01 16:50
EDMA 011650Z 06002KT CAVOK 15/12 Q1005

Flugschulen am Flugplatz Bopfingen

Am Flugplatz Bopfingen gibt es leider keine Flugschule.

Benachbarte Flugplätze und Flugschulen

Es gibt 21 weitere Flugplätze in einem Umkreis von 50 km um den Flugplatz Bopfingen.

Jetzt anmelden

Passwort vergessen

Umfrage Archiv

Wären Rettungsgeräte keine Pflicht mehr, würdet Ihr Euer UL trotzdem mit einem ausstatten?

Ja
85.8 %
Nein
14.2 %
Stimmen: 331 | Diskussion
Anzeige: Roland Aircraft
Statistik Alle Mitglieder

Aktuell sind 40 Besucher online, davon 2 Mitglieder und 38 Gäste.


Mitglieder online:
Maraio  Meckerpott 

Anzeige: VFR Sprechfunk Simulator


Anzeige: Pocket FMS